sensor_id;sensor_type;location;lat;lon;timestamp;temperature;humidity
52889;DHT22;41413;52.770;6.892;2023-02-21T00:02:22;9.10;99.90
52889;DHT22;41413;52.770;6.892;2023-02-21T00:05:07;9.10;99.90
52889;DHT22;41413;52.770;6.892;2023-02-21T00:07:52;9.00;99.90
52889;DHT22;41413;52.770;6.892;2023-02-21T00:10:38;9.00;99.90
52889;DHT22;41413;52.770;6.892;2023-02-21T00:13:23;9.00;99.90
52889;DHT22;41413;52.770;6.892;2023-02-21T00:16:12;9.10;99.90
52889;DHT22;41413;52.770;6.892;2023-02-21T00:18:58;9.10;99.90
52889;DHT22;41413;52.770;6.892;2023-02-21T00:21:43;9.10;99.90
52889;DHT22;41413;52.770;6.892;2023-02-21T00:24:28;9.10;99.90
52889;DHT22;41413;52.770;6.892;2023-02-21T00:27:14;9.10;99.90
52889;DHT22;41413;52.770;6.892;2023-02-21T00:29:59;9.10;99.90
52889;DHT22;41413;52.770;6.892;2023-02-21T00:32:44;9.20;99.90
52889;DHT22;41413;52.770;6.892;2023-02-21T00:35:32;9.10;99.90
52889;DHT22;41413;52.770;6.892;2023-02-21T00:38:18;9.10;99.90
52889;DHT22;41413;52.770;6.892;2023-02-21T00:41:03;9.20;99.90
52889;DHT22;41413;52.770;6.892;2023-02-21T00:43:48;9.10;99.90
52889;DHT22;41413;52.770;6.892;2023-02-21T00:46:34;9.10;99.90
52889;DHT22;41413;52.770;6.892;2023-02-21T00:49:19;9.10;99.90
52889;DHT22;41413;52.770;6.892;2023-02-21T00:52:05;9.10;99.90
52889;DHT22;41413;52.770;6.892;2023-02-21T00:54:50;9.10;99.90
52889;DHT22;41413;52.770;6.892;2023-02-21T00:57:36;9.10;99.90
52889;DHT22;41413;52.770;6.892;2023-02-21T01:00:22;9.10;99.90
52889;DHT22;41413;52.770;6.892;2023-02-21T01:03:08;9.10;99.90
52889;DHT22;41413;52.770;6.892;2023-02-21T01:05:54;9.10;99.90
52889;DHT22;41413;52.770;6.892;2023-02-21T01:08:44;9.10;99.90
52889;DHT22;41413;52.770;6.892;2023-02-21T01:11:30;9.00;99.90
52889;DHT22;41413;52.770;6.892;2023-02-21T01:14:15;9.00;99.90
52889;DHT22;41413;52.770;6.892;2023-02-21T01:17:01;9.00;99.90
52889;DHT22;41413;52.770;6.892;2023-02-21T01:19:46;9.10;99.90
52889;DHT22;41413;52.770;6.892;2023-02-21T01:22:32;9.00;99.90
52889;DHT22;41413;52.770;6.892;2023-02-21T01:25:17;9.00;99.90
52889;DHT22;41413;52.770;6.892;2023-02-21T01:28:03;9.10;99.90
52889;DHT22;41413;52.770;6.892;2023-02-21T01:30:48;9.10;99.90
52889;DHT22;41413;52.770;6.892;2023-02-21T01:33:36;9.10;99.90
52889;DHT22;41413;52.770;6.892;2023-02-21T01:36:21;9.10;99.90
52889;DHT22;41413;52.770;6.892;2023-02-21T01:39:07;9.10;99.90
52889;DHT22;41413;52.770;6.892;2023-02-21T01:41:52;9.10;99.90
52889;DHT22;41413;52.770;6.892;2023-02-21T01:44:40;9.20;99.90
52889;DHT22;41413;52.770;6.892;2023-02-21T01:47:27;9.10;99.90
52889;DHT22;41413;52.770;6.892;2023-02-21T01:50:25;9.10;99.90
52889;DHT22;41413;52.770;6.892;2023-02-21T01:53:16;9.20;99.90
52889;DHT22;41413;52.770;6.892;2023-02-21T01:56:02;9.20;99.90
52889;DHT22;41413;52.770;6.892;2023-02-21T01:58:51;9.10;99.90
52889;DHT22;41413;52.770;6.892;2023-02-21T02:01:50;9.10;99.90
52889;DHT22;41413;52.770;6.892;2023-02-21T02:04:36;9.20;99.90
52889;DHT22;41413;52.770;6.892;2023-02-21T02:07:22;9.20;99.90
52889;DHT22;41413;52.770;6.892;2023-02-21T02:10:08;9.20;99.90
52889;DHT22;41413;52.770;6.892;2023-02-21T02:16:03;9.30;99.90
52889;DHT22;41413;52.770;6.892;2023-02-21T02:35:05;9.30;99.90
52889;DHT22;41413;52.770;6.892;2023-02-21T02:37:48;9.30;99.90
52889;DHT22;41413;52.770;6.892;2023-02-21T02:40:56;9.30;99.90
52889;DHT22;41413;52.770;6.892;2023-02-21T02:43:30;9.30;99.90
52889;DHT22;41413;52.770;6.892;2023-02-21T02:48:33;9.30;99.90
52889;DHT22;41413;52.770;6.892;2023-02-21T02:51:02;9.30;99.90
52889;DHT22;41413;52.770;6.892;2023-02-21T02:53:31;9.30;99.90
52889;DHT22;41413;52.770;6.892;2023-02-21T02:56:01;9.30;99.90
52889;DHT22;41413;52.770;6.892;2023-02-21T02:58:31;9.30;99.90
52889;DHT22;41413;52.770;6.892;2023-02-21T03:09:20;9.20;99.90
52889;DHT22;41413;52.770;6.892;2023-02-21T03:14:26;9.20;99.90
52889;DHT22;41413;52.770;6.892;2023-02-21T03:17:03;9.30;99.90
52889;DHT22;41413;52.770;6.892;2023-02-21T03:19:38;9.30;99.90
52889;DHT22;41413;52.770;6.892;2023-02-21T03:22:17;9.30;99.90
52889;DHT22;41413;52.770;6.892;2023-02-21T03:24:47;9.30;99.90
52889;DHT22;41413;52.770;6.892;2023-02-21T03:27:16;9.30;99.90
52889;DHT22;41413;52.770;6.892;2023-02-21T03:29:43;9.30;99.90
52889;DHT22;41413;52.770;6.892;2023-02-21T03:32:17;9.40;99.90
52889;DHT22;41413;52.770;6.892;2023-02-21T03:34:46;9.40;99.90
52889;DHT22;41413;52.770;6.892;2023-02-21T03:37:41;9.40;99.90
52889;DHT22;41413;52.770;6.892;2023-02-21T03:40:13;9.40;99.90
52889;DHT22;41413;52.770;6.892;2023-02-21T03:42:40;9.30;99.90
52889;DHT22;41413;52.770;6.892;2023-02-21T03:45:07;9.30;99.90
52889;DHT22;41413;52.770;6.892;2023-02-21T03:47:34;9.40;99.90
52889;DHT22;41413;52.770;6.892;2023-02-21T03:50:01;9.30;99.90
52889;DHT22;41413;52.770;6.892;2023-02-21T03:52:29;9.60;99.90
52889;DHT22;41413;52.770;6.892;2023-02-21T03:54:56;9.40;99.90
52889;DHT22;41413;52.770;6.892;2023-02-21T03:57:22;9.40;99.90
52889;DHT22;41413;52.770;6.892;2023-02-21T03:59:50;9.40;99.90
52889;DHT22;41413;52.770;6.892;2023-02-21T04:02:16;9.40;99.90
52889;DHT22;41413;52.770;6.892;2023-02-21T04:04:44;9.50;99.90
52889;DHT22;41413;52.770;6.892;2023-02-21T04:07:18;9.40;99.90
52889;DHT22;41413;52.770;6.892;2023-02-21T04:09:46;9.50;99.90
52889;DHT22;41413;52.770;6.892;2023-02-21T04:12:13;9.40;99.90
52889;DHT22;41413;52.770;6.892;2023-02-21T04:14:40;9.50;99.90
52889;DHT22;41413;52.770;6.892;2023-02-21T04:17:07;9.50;99.90
52889;DHT22;41413;52.770;6.892;2023-02-21T04:19:34;9.50;99.90
52889;DHT22;41413;52.770;6.892;2023-02-21T04:22:00;9.50;99.90
52889;DHT22;41413;52.770;6.892;2023-02-21T04:24:27;9.50;99.90
52889;DHT22;41413;52.770;6.892;2023-02-21T04:26:54;9.50;99.90
52889;DHT22;41413;52.770;6.892;2023-02-21T04:29:21;9.40;99.90
52889;DHT22;41413;52.770;6.892;2023-02-21T04:31:48;9.50;99.90
52889;DHT22;41413;52.770;6.892;2023-02-21T04:34:15;9.40;99.90
52889;DHT22;41413;52.770;6.892;2023-02-21T04:36:42;9.40;99.90
52889;DHT22;41413;52.770;6.892;2023-02-21T04:39:09;9.40;99.90
52889;DHT22;41413;52.770;6.892;2023-02-21T04:41:36;9.40;99.90
52889;DHT22;41413;52.770;6.892;2023-02-21T04:44:03;9.40;99.90
52889;DHT22;41413;52.770;6.892;2023-02-21T04:46:29;9.40;99.90
52889;DHT22;41413;52.770;6.892;2023-02-21T04:48:56;9.40;99.90
52889;DHT22;41413;52.770;6.892;2023-02-21T04:51:24;9.40;99.90
52889;DHT22;41413;52.770;6.892;2023-02-21T04:53:52;9.40;99.90
52889;DHT22;41413;52.770;6.892;2023-02-21T04:56:22;9.40;99.90
52889;DHT22;41413;52.770;6.892;2023-02-21T04:58:49;9.40;99.90
52889;DHT22;41413;52.770;6.892;2023-02-21T05:01:18;9.40;99.90
52889;DHT22;41413;52.770;6.892;2023-02-21T05:03:45;9.40;99.90
52889;DHT22;41413;52.770;6.892;2023-02-21T05:06:23;9.40;99.90
52889;DHT22;41413;52.770;6.892;2023-02-21T05:08:50;9.40;99.90
52889;DHT22;41413;52.770;6.892;2023-02-21T05:11:18;9.40;99.90
52889;DHT22;41413;52.770;6.892;2023-02-21T05:13:46;9.40;99.90
52889;DHT22;41413;52.770;6.892;2023-02-21T05:16:13;9.40;99.90
52889;DHT22;41413;52.770;6.892;2023-02-21T05:18:44;9.40;99.90
52889;DHT22;41413;52.770;6.892;2023-02-21T05:21:11;9.40;99.90
52889;DHT22;41413;52.770;6.892;2023-02-21T05:23:40;9.40;99.90
52889;DHT22;41413;52.770;6.892;2023-02-21T05:26:12;9.40;99.90
52889;DHT22;41413;52.770;6.892;2023-02-21T05:28:40;9.40;99.90
52889;DHT22;41413;52.770;6.892;2023-02-21T05:31:07;9.40;99.90
52889;DHT22;41413;52.770;6.892;2023-02-21T05:33:34;9.40;99.90
52889;DHT22;41413;52.770;6.892;2023-02-21T05:36:01;9.50;99.90
52889;DHT22;41413;52.770;6.892;2023-02-21T05:38:28;9.40;99.90
52889;DHT22;41413;52.770;6.892;2023-02-21T05:40:55;9.40;99.90
52889;DHT22;41413;52.770;6.892;2023-02-21T05:43:21;9.30;99.90
52889;DHT22;41413;52.770;6.892;2023-02-21T05:45:48;9.30;99.90
52889;DHT22;41413;52.770;6.892;2023-02-21T05:48:15;9.40;99.90
52889;DHT22;41413;52.770;6.892;2023-02-21T05:50:41;9.30;99.90
52889;DHT22;41413;52.770;6.892;2023-02-21T05:53:10;9.30;99.90
52889;DHT22;41413;52.770;6.892;2023-02-21T05:55:37;9.40;99.90
52889;DHT22;41413;52.770;6.892;2023-02-21T05:58:04;9.30;99.90
52889;DHT22;41413;52.770;6.892;2023-02-21T06:00:30;9.30;99.90
52889;DHT22;41413;52.770;6.892;2023-02-21T06:02:57;9.30;99.90
52889;DHT22;41413;52.770;6.892;2023-02-21T06:05:24;9.30;99.90
52889;DHT22;41413;52.770;6.892;2023-02-21T06:07:51;9.30;99.90
52889;DHT22;41413;52.770;6.892;2023-02-21T06:10:18;9.30;99.90
52889;DHT22;41413;52.770;6.892;2023-02-21T06:12:45;9.20;99.90
52889;DHT22;41413;52.770;6.892;2023-02-21T06:15:13;9.20;99.90
52889;DHT22;41413;52.770;6.892;2023-02-21T06:17:41;9.20;99.90
52889;DHT22;41413;52.770;6.892;2023-02-21T06:20:11;9.20;99.90
52889;DHT22;41413;52.770;6.892;2023-02-21T06:22:38;9.20;99.90
52889;DHT22;41413;52.770;6.892;2023-02-21T06:25:05;9.20;99.90
52889;DHT22;41413;52.770;6.892;2023-02-21T06:27:32;9.20;99.90
52889;DHT22;41413;52.770;6.892;2023-02-21T06:29:59;9.20;99.90
52889;DHT22;41413;52.770;6.892;2023-02-21T06:32:26;9.20;99.90
52889;DHT22;41413;52.770;6.892;2023-02-21T06:34:53;9.20;99.90
52889;DHT22;41413;52.770;6.892;2023-02-21T06:37:20;9.20;99.90
52889;DHT22;41413;52.770;6.892;2023-02-21T06:39:46;9.30;99.90
52889;DHT22;41413;52.770;6.892;2023-02-21T06:42:14;9.20;99.90
52889;DHT22;41413;52.770;6.892;2023-02-21T06:44:48;9.20;99.90
52889;DHT22;41413;52.770;6.892;2023-02-21T06:47:15;9.20;99.90
52889;DHT22;41413;52.770;6.892;2023-02-21T06:49:42;9.20;99.90
52889;DHT22;41413;52.770;6.892;2023-02-21T06:52:09;9.20;99.90
52889;DHT22;41413;52.770;6.892;2023-02-21T06:54:36;9.20;99.90
52889;DHT22;41413;52.770;6.892;2023-02-21T06:57:03;9.20;99.90
52889;DHT22;41413;52.770;6.892;2023-02-21T06:59:31;9.20;99.90
52889;DHT22;41413;52.770;6.892;2023-02-21T07:01:57;9.10;99.90
52889;DHT22;41413;52.770;6.892;2023-02-21T07:04:24;9.20;99.90
52889;DHT22;41413;52.770;6.892;2023-02-21T07:06:51;9.20;99.90
52889;DHT22;41413;52.770;6.892;2023-02-21T07:09:18;9.20;99.90
52889;DHT22;41413;52.770;6.892;2023-02-21T07:11:45;9.10;99.90
52889;DHT22;41413;52.770;6.892;2023-02-21T07:14:13;9.20;99.90
52889;DHT22;41413;52.770;6.892;2023-02-21T07:16:39;9.20;99.90
52889;DHT22;41413;52.770;6.892;2023-02-21T07:19:06;9.20;99.90
52889;DHT22;41413;52.770;6.892;2023-02-21T07:21:33;9.20;99.90
52889;DHT22;41413;52.770;6.892;2023-02-21T07:24:00;9.20;99.90
52889;DHT22;41413;52.770;6.892;2023-02-21T07:26:26;9.10;99.90
52889;DHT22;41413;52.770;6.892;2023-02-21T07:28:55;9.20;99.90
52889;DHT22;41413;52.770;6.892;2023-02-21T07:31:22;9.20;99.90
52889;DHT22;41413;52.770;6.892;2023-02-21T07:33:49;9.20;99.90
52889;DHT22;41413;52.770;6.892;2023-02-21T07:36:16;9.20;99.90
52889;DHT22;41413;52.770;6.892;2023-02-21T07:38:43;9.20;99.90
52889;DHT22;41413;52.770;6.892;2023-02-21T07:41:09;9.20;99.90
52889;DHT22;41413;52.770;6.892;2023-02-21T07:43:36;9.20;99.90
52889;DHT22;41413;52.770;6.892;2023-02-21T07:46:09;9.30;99.90
52889;DHT22;41413;52.770;6.892;2023-02-21T07:48:36;9.20;99.90
52889;DHT22;41413;52.770;6.892;2023-02-21T07:51:05;9.30;99.90
52889;DHT22;41413;52.770;6.892;2023-02-21T07:53:33;9.40;99.90
52889;DHT22;41413;52.770;6.892;2023-02-21T07:55:59;9.30;99.90
52889;DHT22;41413;52.770;6.892;2023-02-21T08:50:44;9.20;99.90
52889;DHT22;41413;52.770;6.892;2023-02-21T08:53:13;9.20;99.90
52889;DHT22;41413;52.770;6.892;2023-02-21T08:55:41;9.20;99.90
52889;DHT22;41413;52.770;6.892;2023-02-21T08:58:10;9.20;99.90
52889;DHT22;41413;52.770;6.892;2023-02-21T09:00:37;9.20;99.90
52889;DHT22;41413;52.770;6.892;2023-02-21T09:03:04;9.20;99.90
52889;DHT22;41413;52.770;6.892;2023-02-21T09:05:31;9.30;99.90
52889;DHT22;41413;52.770;6.892;2023-02-21T09:07:59;9.30;99.90
52889;DHT22;41413;52.770;6.892;2023-02-21T09:10:31;9.30;99.90
52889;DHT22;41413;52.770;6.892;2023-02-21T09:13:04;9.30;99.90
52889;DHT22;41413;52.770;6.892;2023-02-21T09:15:30;9.40;99.90
52889;DHT22;41413;52.770;6.892;2023-02-21T09:17:57;9.40;99.90
52889;DHT22;41413;52.770;6.892;2023-02-21T09:20:25;9.40;99.90
52889;DHT22;41413;52.770;6.892;2023-02-21T09:22:51;9.40;99.90
52889;DHT22;41413;52.770;6.892;2023-02-21T09:25:21;9.40;99.90
52889;DHT22;41413;52.770;6.892;2023-02-21T09:27:51;9.40;99.90
52889;DHT22;41413;52.770;6.892;2023-02-21T09:30:23;9.40;99.90
52889;DHT22;41413;52.770;6.892;2023-02-21T09:32:52;9.40;99.90
52889;DHT22;41413;52.770;6.892;2023-02-21T09:35:20;9.40;99.90
52889;DHT22;41413;52.770;6.892;2023-02-21T09:37:47;9.40;99.90
52889;DHT22;41413;52.770;6.892;2023-02-21T09:40:42;9.50;99.90
52889;DHT22;41413;52.770;6.892;2023-02-21T09:43:27;9.60;99.90
52889;DHT22;41413;52.770;6.892;2023-02-21T09:45:59;9.60;99.90
52889;DHT22;41413;52.770;6.892;2023-02-21T09:48:27;9.60;99.90
52889;DHT22;41413;52.770;6.892;2023-02-21T09:50:58;9.60;99.90
52889;DHT22;41413;52.770;6.892;2023-02-21T09:53:30;9.60;99.90
52889;DHT22;41413;52.770;6.892;2023-02-21T09:56:27;9.50;99.90
52889;DHT22;41413;52.770;6.892;2023-02-21T09:58:55;9.60;99.90
52889;DHT22;41413;52.770;6.892;2023-02-21T10:01:46;9.60;99.90
52889;DHT22;41413;52.770;6.892;2023-02-21T10:07:17;9.60;99.90
52889;DHT22;41413;52.770;6.892;2023-02-21T10:10:00;9.50;99.90
52889;DHT22;41413;52.770;6.892;2023-02-21T10:12:42;9.70;99.90
52889;DHT22;41413;52.770;6.892;2023-02-21T10:15:42;9.80;99.90
52889;DHT22;41413;52.770;6.892;2023-02-21T10:18:44;9.70;99.90
52889;DHT22;41413;52.770;6.892;2023-02-21T10:21:20;9.80;99.90
52889;DHT22;41413;52.770;6.892;2023-02-21T10:23:50;9.90;99.90
52889;DHT22;41413;52.770;6.892;2023-02-21T10:26:22;9.80;99.90
52889;DHT22;41413;52.770;6.892;2023-02-21T10:28:51;9.90;99.90
52889;DHT22;41413;52.770;6.892;2023-02-21T10:31:23;10.00;99.90
52889;DHT22;41413;52.770;6.892;2023-02-21T10:33:51;10.00;99.90
52889;DHT22;41413;52.770;6.892;2023-02-21T10:36:19;10.00;99.90
52889;DHT22;41413;52.770;6.892;2023-02-21T10:38:55;10.00;99.90
52889;DHT22;41413;52.770;6.892;2023-02-21T10:41:26;10.10;99.90
52889;DHT22;41413;52.770;6.892;2023-02-21T10:44:00;10.00;99.90
52889;DHT22;41413;52.770;6.892;2023-02-21T10:47:14;10.10;99.90
52889;DHT22;41413;52.770;6.892;2023-02-21T10:49:27;10.20;99.90
52889;DHT22;41413;52.770;6.892;2023-02-21T10:54:32;10.10;99.90
52889;DHT22;41413;52.770;6.892;2023-02-21T10:57:03;10.00;99.90
52889;DHT22;41413;52.770;6.892;2023-02-21T10:59:33;9.90;99.90
52889;DHT22;41413;52.770;6.892;2023-02-21T11:02:02;10.00;99.90
52889;DHT22;41413;52.770;6.892;2023-02-21T11:04:47;10.00;99.90
52889;DHT22;41413;52.770;6.892;2023-02-21T11:07:14;9.90;99.90
52889;DHT22;41413;52.770;6.892;2023-02-21T11:09:43;10.00;99.90
52889;DHT22;41413;52.770;6.892;2023-02-21T11:17:21;9.90;99.90
52889;DHT22;41413;52.770;6.892;2023-02-21T11:22:40;9.90;99.90
52889;DHT22;41413;52.770;6.892;2023-02-21T11:25:15;9.90;99.90
52889;DHT22;41413;52.770;6.892;2023-02-21T11:27:44;9.90;99.90
52889;DHT22;41413;52.770;6.892;2023-02-21T11:30:23;9.90;99.90
52889;DHT22;41413;52.770;6.892;2023-02-21T11:32:57;9.90;99.90
52889;DHT22;41413;52.770;6.892;2023-02-21T11:35:27;10.00;99.90
52889;DHT22;41413;52.770;6.892;2023-02-21T11:38:06;10.00;99.90
52889;DHT22;41413;52.770;6.892;2023-02-21T11:40:42;10.00;99.90
52889;DHT22;41413;52.770;6.892;2023-02-21T11:48:32;10.10;99.90
52889;DHT22;41413;52.770;6.892;2023-02-21T11:51:04;10.10;99.90
52889;DHT22;41413;52.770;6.892;2023-02-21T11:53:41;10.10;99.90
52889;DHT22;41413;52.770;6.892;2023-02-21T11:56:50;10.20;99.90
52889;DHT22;41413;52.770;6.892;2023-02-21T11:59:33;10.30;99.90
52889;DHT22;41413;52.770;6.892;2023-02-21T12:02:31;10.20;99.90
52889;DHT22;41413;52.770;6.892;2023-02-21T12:10:52;10.40;99.90
52889;DHT22;41413;52.770;6.892;2023-02-21T12:19:44;10.40;99.90
52889;DHT22;41413;52.770;6.892;2023-02-21T12:25:19;10.40;99.90
52889;DHT22;41413;52.770;6.892;2023-02-21T12:33:53;10.20;99.90
52889;DHT22;41413;52.770;6.892;2023-02-21T12:39:38;10.20;99.90
52889;DHT22;41413;52.770;6.892;2023-02-21T12:42:24;10.10;99.90
52889;DHT22;41413;52.770;6.892;2023-02-21T12:47:58;10.10;99.90
52889;DHT22;41413;52.770;6.892;2023-02-21T12:50:37;10.10;99.90
52889;DHT22;41413;52.770;6.892;2023-02-21T12:53:13;10.00;99.90
52889;DHT22;41413;52.770;6.892;2023-02-21T12:56:06;10.00;99.90
52889;DHT22;41413;52.770;6.892;2023-02-21T13:01:20;10.00;99.90
52889;DHT22;41413;52.770;6.892;2023-02-21T13:06:59;9.90;99.90
52889;DHT22;41413;52.770;6.892;2023-02-21T13:09:38;9.90;99.90
52889;DHT22;41413;52.770;6.892;2023-02-21T13:12:15;9.90;99.90
52889;DHT22;41413;52.770;6.892;2023-02-21T13:14:49;10.10;99.90
52889;DHT22;41413;52.770;6.892;2023-02-21T13:17:17;10.00;99.90
52889;DHT22;41413;52.770;6.892;2023-02-21T13:19:53;9.90;99.90
52889;DHT22;41413;52.770;6.892;2023-02-21T13:22:39;9.90;99.90
52889;DHT22;41413;52.770;6.892;2023-02-21T13:28:21;9.80;99.90
52889;DHT22;41413;52.770;6.892;2023-02-21T13:30:57;9.70;99.90
52889;DHT22;41413;52.770;6.892;2023-02-21T13:33:28;9.70;99.90
52889;DHT22;41413;52.770;6.892;2023-02-21T13:35:57;9.70;99.90
52889;DHT22;41413;52.770;6.892;2023-02-21T13:38:28;9.80;99.90
52889;DHT22;41413;52.770;6.892;2023-02-21T13:41:07;9.80;99.90
52889;DHT22;41413;52.770;6.892;2023-02-21T13:43:36;9.80;99.90
52889;DHT22;41413;52.770;6.892;2023-02-21T13:57:40;9.70;99.90
52889;DHT22;41413;52.770;6.892;2023-02-21T14:03:02;9.70;99.90
52889;DHT22;41413;52.770;6.892;2023-02-21T14:08:26;9.80;99.90
52889;DHT22;41413;52.770;6.892;2023-02-21T14:16:44;9.80;99.90
52889;DHT22;41413;52.770;6.892;2023-02-21T14:19:34;9.70;99.90
52889;DHT22;41413;52.770;6.892;2023-02-21T14:22:16;9.70;99.90
52889;DHT22;41413;52.770;6.892;2023-02-21T14:24:48;9.70;99.90
52889;DHT22;41413;52.770;6.892;2023-02-21T14:29:44;9.70;99.90
52889;DHT22;41413;52.770;6.892;2023-02-21T14:32:50;9.80;99.90
52889;DHT22;41413;52.770;6.892;2023-02-21T14:51:36;9.70;99.90
52889;DHT22;41413;52.770;6.892;2023-02-21T14:57:42;9.70;99.90
52889;DHT22;41413;52.770;6.892;2023-02-21T15:00:21;9.70;99.90
52889;DHT22;41413;52.770;6.892;2023-02-21T15:03:17;9.70;99.90
52889;DHT22;41413;52.770;6.892;2023-02-21T15:08:17;9.60;99.90
52889;DHT22;41413;52.770;6.892;2023-02-21T15:10:48;9.70;99.90
52889;DHT22;41413;52.770;6.892;2023-02-21T15:13:30;9.70;99.90
52889;DHT22;41413;52.770;6.892;2023-02-21T15:16:06;9.70;99.90
52889;DHT22;41413;52.770;6.892;2023-02-21T15:18:55;9.70;99.90
52889;DHT22;41413;52.770;6.892;2023-02-21T15:21:22;9.70;99.90
52889;DHT22;41413;52.770;6.892;2023-02-21T15:24:11;9.70;99.90
52889;DHT22;41413;52.770;6.892;2023-02-21T15:26:39;9.70;99.90
52889;DHT22;41413;52.770;6.892;2023-02-21T15:31:52;9.70;99.90
52889;DHT22;41413;52.770;6.892;2023-02-21T15:37:11;9.60;99.90
52889;DHT22;41413;52.770;6.892;2023-02-21T15:39:41;9.60;99.90
52889;DHT22;41413;52.770;6.892;2023-02-21T15:42:13;9.60;99.90
52889;DHT22;41413;52.770;6.892;2023-02-21T15:45:00;9.60;99.90
52889;DHT22;41413;52.770;6.892;2023-02-21T15:47:28;9.60;99.90
52889;DHT22;41413;52.770;6.892;2023-02-21T15:52:35;9.60;99.90
52889;DHT22;41413;52.770;6.892;2023-02-21T15:55:31;9.60;99.90
52889;DHT22;41413;52.770;6.892;2023-02-21T15:58:01;9.50;99.90
52889;DHT22;41413;52.770;6.892;2023-02-21T16:00:32;9.50;99.90
52889;DHT22;41413;52.770;6.892;2023-02-21T16:03:28;9.50;99.90
52889;DHT22;41413;52.770;6.892;2023-02-21T16:06:07;9.50;99.90
52889;DHT22;41413;52.770;6.892;2023-02-21T16:08:35;9.50;99.90
52889;DHT22;41413;52.770;6.892;2023-02-21T16:11:04;9.50;99.90
52889;DHT22;41413;52.770;6.892;2023-02-21T16:13:37;9.50;99.90
52889;DHT22;41413;52.770;6.892;2023-02-21T16:16:06;9.40;99.90
52889;DHT22;41413;52.770;6.892;2023-02-21T16:18:33;9.40;99.90
52889;DHT22;41413;52.770;6.892;2023-02-21T16:21:05;9.30;99.90
52889;DHT22;41413;52.770;6.892;2023-02-21T16:23:38;9.30;99.90
52889;DHT22;41413;52.770;6.892;2023-02-21T16:28:39;9.30;99.90
52889;DHT22;41413;52.770;6.892;2023-02-21T16:31:23;9.30;99.90
52889;DHT22;41413;52.770;6.892;2023-02-21T16:33:50;9.20;99.90
52889;DHT22;41413;52.770;6.892;2023-02-21T16:36:22;9.20;99.90
52889;DHT22;41413;52.770;6.892;2023-02-21T16:38:49;9.20;99.90
52889;DHT22;41413;52.770;6.892;2023-02-21T16:41:16;9.20;99.90
52889;DHT22;41413;52.770;6.892;2023-02-21T16:43:43;9.20;99.90
52889;DHT22;41413;52.770;6.892;2023-02-21T16:46:11;9.20;99.90
52889;DHT22;41413;52.770;6.892;2023-02-21T16:48:38;9.20;99.90
52889;DHT22;41413;52.770;6.892;2023-02-21T16:51:11;9.20;99.90
52889;DHT22;41413;52.770;6.892;2023-02-21T16:53:42;9.10;99.90
52889;DHT22;41413;52.770;6.892;2023-02-21T16:56:09;9.10;99.90
52889;DHT22;41413;52.770;6.892;2023-02-21T16:58:38;9.20;99.90
52889;DHT22;41413;52.770;6.892;2023-02-21T17:01:22;9.20;99.90
52889;DHT22;41413;52.770;6.892;2023-02-21T17:03:49;9.20;99.90
52889;DHT22;41413;52.770;6.892;2023-02-21T17:06:21;9.20;99.90
52889;DHT22;41413;52.770;6.892;2023-02-21T17:08:49;9.20;99.90
52889;DHT22;41413;52.770;6.892;2023-02-21T17:11:16;9.20;99.90
52889;DHT22;41413;52.770;6.892;2023-02-21T17:13:43;9.20;99.90
52889;DHT22;41413;52.770;6.892;2023-02-21T17:16:10;9.20;99.90
52889;DHT22;41413;52.770;6.892;2023-02-21T17:18:36;9.20;99.90
52889;DHT22;41413;52.770;6.892;2023-02-21T17:21:04;9.20;99.90
52889;DHT22;41413;52.770;6.892;2023-02-21T17:23:30;9.20;99.90
52889;DHT22;41413;52.770;6.892;2023-02-21T17:25:57;9.20;99.90
52889;DHT22;41413;52.770;6.892;2023-02-21T17:28:24;9.10;99.90
52889;DHT22;41413;52.770;6.892;2023-02-21T17:30:50;9.20;99.90
52889;DHT22;41413;52.770;6.892;2023-02-21T17:33:17;9.10;99.90
52889;DHT22;41413;52.770;6.892;2023-02-21T17:35:44;9.10;99.90
52889;DHT22;41413;52.770;6.892;2023-02-21T17:38:11;9.10;99.90
52889;DHT22;41413;52.770;6.892;2023-02-21T17:40:38;9.10;99.90
52889;DHT22;41413;52.770;6.892;2023-02-21T17:43:05;9.10;99.90
52889;DHT22;41413;52.770;6.892;2023-02-21T17:45:34;9.10;99.90
52889;DHT22;41413;52.770;6.892;2023-02-21T17:48:04;9.10;99.90
52889;DHT22;41413;52.770;6.892;2023-02-21T17:50:31;9.10;99.90
52889;DHT22;41413;52.770;6.892;2023-02-21T17:52:58;9.10;99.90
52889;DHT22;41413;52.770;6.892;2023-02-21T17:55:25;9.10;99.90
52889;DHT22;41413;52.770;6.892;2023-02-21T17:57:54;9.10;99.90
52889;DHT22;41413;52.770;6.892;2023-02-21T18:00:25;9.10;99.90
52889;DHT22;41413;52.770;6.892;2023-02-21T18:02:54;9.10;99.90
52889;DHT22;41413;52.770;6.892;2023-02-21T18:05:22;9.10;99.90
52889;DHT22;41413;52.770;6.892;2023-02-21T18:07:51;9.10;99.90
52889;DHT22;41413;52.770;6.892;2023-02-21T18:10:19;9.10;99.90
52889;DHT22;41413;52.770;6.892;2023-02-21T18:12:47;9.10;99.90
52889;DHT22;41413;52.770;6.892;2023-02-21T18:15:18;9.10;99.90
52889;DHT22;41413;52.770;6.892;2023-02-21T18:17:45;9.10;99.90
52889;DHT22;41413;52.770;6.892;2023-02-21T18:20:12;9.10;99.90
52889;DHT22;41413;52.770;6.892;2023-02-21T18:22:41;9.10;99.90
52889;DHT22;41413;52.770;6.892;2023-02-21T18:25:08;9.10;99.90
52889;DHT22;41413;52.770;6.892;2023-02-21T18:27:35;9.10;99.90
52889;DHT22;41413;52.770;6.892;2023-02-21T18:30:03;9.00;99.90
52889;DHT22;41413;52.770;6.892;2023-02-21T18:32:30;9.10;99.90
52889;DHT22;41413;52.770;6.892;2023-02-21T18:34:57;9.10;99.90
52889;DHT22;41413;52.770;6.892;2023-02-21T18:37:25;9.00;99.90
52889;DHT22;41413;52.770;6.892;2023-02-21T18:39:53;9.00;99.90
52889;DHT22;41413;52.770;6.892;2023-02-21T18:42:21;9.10;99.90
52889;DHT22;41413;52.770;6.892;2023-02-21T18:44:50;9.10;99.90
52889;DHT22;41413;52.770;6.892;2023-02-21T18:47:17;9.10;99.90
52889;DHT22;41413;52.770;6.892;2023-02-21T18:49:46;9.00;99.90
52889;DHT22;41413;52.770;6.892;2023-02-21T18:52:14;9.00;99.90
52889;DHT22;41413;52.770;6.892;2023-02-21T18:54:45;9.00;99.90
52889;DHT22;41413;52.770;6.892;2023-02-21T18:57:19;9.00;99.90
52889;DHT22;41413;52.770;6.892;2023-02-21T18:59:46;9.00;99.90
52889;DHT22;41413;52.770;6.892;2023-02-21T19:02:15;9.00;99.90
52889;DHT22;41413;52.770;6.892;2023-02-21T19:04:43;9.00;99.90
52889;DHT22;41413;52.770;6.892;2023-02-21T19:07:11;9.00;99.90
52889;DHT22;41413;52.770;6.892;2023-02-21T19:09:39;9.00;99.90
52889;DHT22;41413;52.770;6.892;2023-02-21T19:12:06;9.00;99.90
52889;DHT22;41413;52.770;6.892;2023-02-21T19:14:36;9.00;99.90
52889;DHT22;41413;52.770;6.892;2023-02-21T19:17:04;9.00;99.90
52889;DHT22;41413;52.770;6.892;2023-02-21T19:19:34;9.00;99.90
52889;DHT22;41413;52.770;6.892;2023-02-21T19:22:00;9.00;99.90
52889;DHT22;41413;52.770;6.892;2023-02-21T19:24:27;8.90;99.90
52889;DHT22;41413;52.770;6.892;2023-02-21T19:26:54;9.00;99.90
52889;DHT22;41413;52.770;6.892;2023-02-21T19:29:21;8.90;99.90
52889;DHT22;41413;52.770;6.892;2023-02-21T19:31:48;8.90;99.90
52889;DHT22;41413;52.770;6.892;2023-02-21T19:34:15;8.90;99.90
52889;DHT22;41413;52.770;6.892;2023-02-21T19:36:42;8.90;99.90
52889;DHT22;41413;52.770;6.892;2023-02-21T19:39:09;9.00;99.90
52889;DHT22;41413;52.770;6.892;2023-02-21T19:41:37;9.00;99.90